sensor_id;sensor_type;location;lat;lon;timestamp;P1;durP1;ratioP1;P2;durP2;ratioP2
20657;SDS011;10488;50.846;4.078;2023-04-08T00:01:04;21.08;;;8.80;;
20657;SDS011;10488;50.846;4.078;2023-04-08T00:03:30;25.25;;;8.93;;
20657;SDS011;10488;50.846;4.078;2023-04-08T00:05:56;21.63;;;8.73;;
20657;SDS011;10488;50.846;4.078;2023-04-08T00:08:22;20.50;;;8.38;;
20657;SDS011;10488;50.846;4.078;2023-04-08T00:10:47;22.48;;;8.15;;
20657;SDS011;10488;50.846;4.078;2023-04-08T00:13:13;25.77;;;8.85;;
20657;SDS011;10488;50.846;4.078;2023-04-08T00:15:39;21.92;;;8.98;;
20657;SDS011;10488;50.846;4.078;2023-04-08T00:18:06;20.38;;;8.07;;
20657;SDS011;10488;50.846;4.078;2023-04-08T00:20:32;18.13;;;7.60;;
20657;SDS011;10488;50.846;4.078;2023-04-08T00:22:57;16.42;;;7.93;;
20657;SDS011;10488;50.846;4.078;2023-04-08T00:25:23;16.45;;;8.20;;
20657;SDS011;10488;50.846;4.078;2023-04-08T00:27:49;18.20;;;8.73;;
20657;SDS011;10488;50.846;4.078;2023-04-08T00:30:15;18.42;;;7.43;;
20657;SDS011;10488;50.846;4.078;2023-04-08T00:32:41;16.27;;;8.10;;
20657;SDS011;10488;50.846;4.078;2023-04-08T00:35:06;24.20;;;8.63;;
20657;SDS011;10488;50.846;4.078;2023-04-08T00:37:32;21.75;;;8.57;;
20657;SDS011;10488;50.846;4.078;2023-04-08T00:39:59;22.15;;;9.18;;
20657;SDS011;10488;50.846;4.078;2023-04-08T00:42:24;23.95;;;9.07;;
20657;SDS011;10488;50.846;4.078;2023-04-08T00:44:50;19.92;;;8.75;;
20657;SDS011;10488;50.846;4.078;2023-04-08T00:47:16;21.40;;;9.57;;
20657;SDS011;10488;50.846;4.078;2023-04-08T00:49:42;29.40;;;9.27;;
20657;SDS011;10488;50.846;4.078;2023-04-08T00:52:08;21.90;;;9.80;;
20657;SDS011;10488;50.846;4.078;2023-04-08T00:54:34;21.50;;;8.18;;
20657;SDS011;10488;50.846;4.078;2023-04-08T00:57:01;22.25;;;9.68;;
20657;SDS011;10488;50.846;4.078;2023-04-08T00:59:28;26.60;;;10.35;;
20657;SDS011;10488;50.846;4.078;2023-04-08T01:01:56;23.67;;;10.55;;
20657;SDS011;10488;50.846;4.078;2023-04-08T01:07:21;20.45;;;10.27;;
20657;SDS011;10488;50.846;4.078;2023-04-08T01:09:56;18.98;;;9.82;;
20657;SDS011;10488;50.846;4.078;2023-04-08T01:12:31;26.85;;;9.02;;
20657;SDS011;10488;50.846;4.078;2023-04-08T01:15:02;19.85;;;8.73;;
20657;SDS011;10488;50.846;4.078;2023-04-08T01:17:30;18.63;;;8.77;;
20657;SDS011;10488;50.846;4.078;2023-04-08T01:19:58;22.10;;;9.40;;
20657;SDS011;10488;50.846;4.078;2023-04-08T01:25:01;24.17;;;8.85;;
20657;SDS011;10488;50.846;4.078;2023-04-08T01:27:32;22.38;;;9.50;;
20657;SDS011;10488;50.846;4.078;2023-04-08T01:29:58;19.25;;;8.80;;
20657;SDS011;10488;50.846;4.078;2023-04-08T01:32:28;16.75;;;8.85;;
20657;SDS011;10488;50.846;4.078;2023-04-08T01:34:56;20.45;;;8.45;;
20657;SDS011;10488;50.846;4.078;2023-04-08T01:37:23;21.27;;;9.43;;
20657;SDS011;10488;50.846;4.078;2023-04-08T01:39:50;23.90;;;9.80;;
20657;SDS011;10488;50.846;4.078;2023-04-08T01:42:18;20.02;;;9.85;;
20657;SDS011;10488;50.846;4.078;2023-04-08T01:44:46;21.33;;;9.27;;
20657;SDS011;10488;50.846;4.078;2023-04-08T01:47:13;17.60;;;8.27;;
20657;SDS011;10488;50.846;4.078;2023-04-08T01:49:39;21.15;;;9.15;;
20657;SDS011;10488;50.846;4.078;2023-04-08T01:52:06;18.27;;;8.75;;
20657;SDS011;10488;50.846;4.078;2023-04-08T01:54:34;14.95;;;7.57;;
20657;SDS011;10488;50.846;4.078;2023-04-08T01:56:59;19.48;;;8.43;;
20657;SDS011;10488;50.846;4.078;2023-04-08T01:59:30;16.70;;;9.00;;
20657;SDS011;10488;50.846;4.078;2023-04-08T02:02:00;18.40;;;8.75;;
20657;SDS011;10488;50.846;4.078;2023-04-08T02:04:27;20.17;;;8.77;;
20657;SDS011;10488;50.846;4.078;2023-04-08T02:06:54;22.08;;;8.80;;
20657;SDS011;10488;50.846;4.078;2023-04-08T02:09:20;21.45;;;8.40;;
20657;SDS011;10488;50.846;4.078;2023-04-08T02:11:46;18.13;;;8.48;;
20657;SDS011;10488;50.846;4.078;2023-04-08T02:14:12;17.98;;;8.60;;
20657;SDS011;10488;50.846;4.078;2023-04-08T02:16:48;21.23;;;7.63;;
20657;SDS011;10488;50.846;4.078;2023-04-08T02:19:19;19.48;;;8.35;;
20657;SDS011;10488;50.846;4.078;2023-04-08T02:22:01;18.05;;;8.55;;
20657;SDS011;10488;50.846;4.078;2023-04-08T02:24:33;20.20;;;8.52;;
20657;SDS011;10488;50.846;4.078;2023-04-08T02:27:03;19.63;;;8.65;;
20657;SDS011;10488;50.846;4.078;2023-04-08T02:29:30;17.98;;;8.38;;
20657;SDS011;10488;50.846;4.078;2023-04-08T02:31:56;20.73;;;8.75;;
20657;SDS011;10488;50.846;4.078;2023-04-08T02:34:23;20.15;;;8.90;;
20657;SDS011;10488;50.846;4.078;2023-04-08T02:36:50;16.75;;;8.38;;
20657;SDS011;10488;50.846;4.078;2023-04-08T02:39:16;16.42;;;7.97;;
20657;SDS011;10488;50.846;4.078;2023-04-08T02:41:42;16.02;;;8.25;;
20657;SDS011;10488;50.846;4.078;2023-04-08T02:44:08;20.13;;;8.57;;
20657;SDS011;10488;50.846;4.078;2023-04-08T02:46:34;19.75;;;8.15;;
20657;SDS011;10488;50.846;4.078;2023-04-08T02:48:59;19.15;;;8.68;;
20657;SDS011;10488;50.846;4.078;2023-04-08T02:51:25;23.08;;;9.40;;
20657;SDS011;10488;50.846;4.078;2023-04-08T02:53:52;15.82;;;8.95;;
20657;SDS011;10488;50.846;4.078;2023-04-08T02:56:17;20.75;;;7.90;;
20657;SDS011;10488;50.846;4.078;2023-04-08T02:58:43;16.92;;;8.25;;
20657;SDS011;10488;50.846;4.078;2023-04-08T03:01:09;16.23;;;7.72;;
20657;SDS011;10488;50.846;4.078;2023-04-08T03:03:35;17.30;;;8.30;;
20657;SDS011;10488;50.846;4.078;2023-04-08T03:06:01;19.27;;;8.18;;
20657;SDS011;10488;50.846;4.078;2023-04-08T03:08:26;16.42;;;7.82;;
20657;SDS011;10488;50.846;4.078;2023-04-08T03:10:52;16.27;;;7.80;;
20657;SDS011;10488;50.846;4.078;2023-04-08T03:13:17;16.35;;;8.13;;
20657;SDS011;10488;50.846;4.078;2023-04-08T03:15:43;19.45;;;8.00;;
20657;SDS011;10488;50.846;4.078;2023-04-08T03:18:09;15.38;;;7.63;;
20657;SDS011;10488;50.846;4.078;2023-04-08T03:20:34;18.15;;;8.30;;
20657;SDS011;10488;50.846;4.078;2023-04-08T03:23:00;15.98;;;7.68;;
20657;SDS011;10488;50.846;4.078;2023-04-08T03:25:26;14.38;;;7.88;;
20657;SDS011;10488;50.846;4.078;2023-04-08T03:27:53;16.05;;;7.22;;
20657;SDS011;10488;50.846;4.078;2023-04-08T03:30:19;16.75;;;7.38;;
20657;SDS011;10488;50.846;4.078;2023-04-08T03:32:45;14.77;;;7.45;;
20657;SDS011;10488;50.846;4.078;2023-04-08T03:35:10;16.00;;;7.90;;
20657;SDS011;10488;50.846;4.078;2023-04-08T03:37:36;16.67;;;8.00;;
20657;SDS011;10488;50.846;4.078;2023-04-08T03:40:02;11.65;;;7.30;;
20657;SDS011;10488;50.846;4.078;2023-04-08T03:42:28;19.33;;;8.32;;
20657;SDS011;10488;50.846;4.078;2023-04-08T03:44:54;23.73;;;7.22;;
20657;SDS011;10488;50.846;4.078;2023-04-08T03:47:19;20.08;;;7.53;;
20657;SDS011;10488;50.846;4.078;2023-04-08T03:49:45;21.05;;;7.50;;
20657;SDS011;10488;50.846;4.078;2023-04-08T03:52:11;13.93;;;8.35;;
20657;SDS011;10488;50.846;4.078;2023-04-08T03:54:36;14.13;;;6.70;;
20657;SDS011;10488;50.846;4.078;2023-04-08T03:57:02;19.40;;;7.70;;
20657;SDS011;10488;50.846;4.078;2023-04-08T03:59:28;15.98;;;8.25;;
20657;SDS011;10488;50.846;4.078;2023-04-08T04:01:53;20.15;;;8.35;;
20657;SDS011;10488;50.846;4.078;2023-04-08T04:04:19;17.00;;;8.27;;
20657;SDS011;10488;50.846;4.078;2023-04-08T04:06:45;15.73;;;8.07;;
20657;SDS011;10488;50.846;4.078;2023-04-08T04:09:11;15.52;;;8.55;;
20657;SDS011;10488;50.846;4.078;2023-04-08T04:11:36;18.42;;;8.23;;
20657;SDS011;10488;50.846;4.078;2023-04-08T04:14:02;13.88;;;7.90;;
20657;SDS011;10488;50.846;4.078;2023-04-08T04:16:28;16.70;;;8.82;;
20657;SDS011;10488;50.846;4.078;2023-04-08T04:18:53;12.68;;;8.10;;
20657;SDS011;10488;50.846;4.078;2023-04-08T04:21:19;24.05;;;10.40;;
20657;SDS011;10488;50.846;4.078;2023-04-08T04:23:45;15.30;;;8.38;;
20657;SDS011;10488;50.846;4.078;2023-04-08T04:26:11;15.23;;;9.40;;
20657;SDS011;10488;50.846;4.078;2023-04-08T04:28:36;16.55;;;9.13;;
20657;SDS011;10488;50.846;4.078;2023-04-08T04:31:03;12.70;;;8.63;;
20657;SDS011;10488;50.846;4.078;2023-04-08T04:33:29;19.77;;;9.20;;
20657;SDS011;10488;50.846;4.078;2023-04-08T04:35:55;15.05;;;9.35;;
20657;SDS011;10488;50.846;4.078;2023-04-08T04:38:21;19.15;;;8.98;;
20657;SDS011;10488;50.846;4.078;2023-04-08T04:40:46;22.33;;;10.48;;
20657;SDS011;10488;50.846;4.078;2023-04-08T04:43:12;19.63;;;9.63;;
20657;SDS011;10488;50.846;4.078;2023-04-08T04:45:38;15.63;;;8.95;;
20657;SDS011;10488;50.846;4.078;2023-04-08T04:48:03;19.08;;;9.55;;
20657;SDS011;10488;50.846;4.078;2023-04-08T04:50:29;19.90;;;9.40;;
20657;SDS011;10488;50.846;4.078;2023-04-08T04:52:55;20.75;;;9.95;;
20657;SDS011;10488;50.846;4.078;2023-04-08T04:55:20;18.63;;;9.05;;
20657;SDS011;10488;50.846;4.078;2023-04-08T04:57:46;21.10;;;9.90;;
20657;SDS011;10488;50.846;4.078;2023-04-08T05:00:13;21.77;;;9.32;;
20657;SDS011;10488;50.846;4.078;2023-04-08T05:02:38;15.48;;;8.80;;
20657;SDS011;10488;50.846;4.078;2023-04-08T05:05:04;20.33;;;8.63;;
20657;SDS011;10488;50.846;4.078;2023-04-08T05:07:30;22.08;;;10.05;;
20657;SDS011;10488;50.846;4.078;2023-04-08T05:09:59;19.25;;;10.77;;
20657;SDS011;10488;50.846;4.078;2023-04-08T05:12:25;20.65;;;9.43;;
20657;SDS011;10488;50.846;4.078;2023-04-08T05:14:51;21.85;;;10.05;;
20657;SDS011;10488;50.846;4.078;2023-04-08T05:17:16;16.27;;;9.73;;
20657;SDS011;10488;50.846;4.078;2023-04-08T05:19:42;15.25;;;9.98;;
20657;SDS011;10488;50.846;4.078;2023-04-08T05:22:08;21.42;;;10.60;;
20657;SDS011;10488;50.846;4.078;2023-04-08T05:24:33;20.25;;;9.80;;
20657;SDS011;10488;50.846;4.078;2023-04-08T05:27:00;17.50;;;10.10;;
20657;SDS011;10488;50.846;4.078;2023-04-08T05:29:25;21.25;;;11.18;;
20657;SDS011;10488;50.846;4.078;2023-04-08T05:31:51;23.92;;;12.35;;
20657;SDS011;10488;50.846;4.078;2023-04-08T05:34:17;16.92;;;10.13;;
20657;SDS011;10488;50.846;4.078;2023-04-08T05:36:46;17.40;;;10.23;;
20657;SDS011;10488;50.846;4.078;2023-04-08T05:39:18;21.50;;;11.45;;
20657;SDS011;10488;50.846;4.078;2023-04-08T05:41:44;22.98;;;11.57;;
20657;SDS011;10488;50.846;4.078;2023-04-08T05:44:10;22.30;;;12.55;;
20657;SDS011;10488;50.846;4.078;2023-04-08T05:46:36;27.88;;;12.60;;
20657;SDS011;10488;50.846;4.078;2023-04-08T05:49:02;23.73;;;12.27;;
20657;SDS011;10488;50.846;4.078;2023-04-08T05:51:28;19.30;;;11.30;;
20657;SDS011;10488;50.846;4.078;2023-04-08T05:53:54;23.13;;;11.10;;
20657;SDS011;10488;50.846;4.078;2023-04-08T05:56:20;22.42;;;11.05;;
20657;SDS011;10488;50.846;4.078;2023-04-08T05:58:46;22.23;;;12.00;;
20657;SDS011;10488;50.846;4.078;2023-04-08T06:01:12;21.98;;;11.50;;
20657;SDS011;10488;50.846;4.078;2023-04-08T06:03:38;20.73;;;11.27;;
20657;SDS011;10488;50.846;4.078;2023-04-08T06:06:08;20.42;;;11.18;;
20657;SDS011;10488;50.846;4.078;2023-04-08T06:08:36;19.80;;;12.48;;
20657;SDS011;10488;50.846;4.078;2023-04-08T06:11:02;26.13;;;13.52;;
20657;SDS011;10488;50.846;4.078;2023-04-08T06:13:31;33.25;;;13.75;;
20657;SDS011;10488;50.846;4.078;2023-04-08T06:15:57;29.73;;;14.38;;
20657;SDS011;10488;50.846;4.078;2023-04-08T06:18:23;27.83;;;14.38;;
20657;SDS011;10488;50.846;4.078;2023-04-08T06:20:49;32.95;;;15.40;;
20657;SDS011;10488;50.846;4.078;2023-04-08T06:23:16;38.45;;;16.58;;
20657;SDS011;10488;50.846;4.078;2023-04-08T06:25:41;28.65;;;14.43;;
20657;SDS011;10488;50.846;4.078;2023-04-08T06:28:07;30.02;;;15.23;;
20657;SDS011;10488;50.846;4.078;2023-04-08T06:30:33;30.95;;;14.82;;
20657;SDS011;10488;50.846;4.078;2023-04-08T06:32:58;28.15;;;14.55;;
20657;SDS011;10488;50.846;4.078;2023-04-08T06:35:24;34.30;;;15.35;;
20657;SDS011;10488;50.846;4.078;2023-04-08T06:37:49;32.47;;;15.52;;
20657;SDS011;10488;50.846;4.078;2023-04-08T06:40:15;33.45;;;15.77;;
20657;SDS011;10488;50.846;4.078;2023-04-08T06:42:41;42.33;;;17.60;;
20657;SDS011;10488;50.846;4.078;2023-04-08T06:45:08;38.60;;;16.48;;
20657;SDS011;10488;50.846;4.078;2023-04-08T06:47:34;31.95;;;16.55;;
20657;SDS011;10488;50.846;4.078;2023-04-08T06:50:00;39.05;;;18.25;;
20657;SDS011;10488;50.846;4.078;2023-04-08T06:52:26;42.88;;;20.13;;
20657;SDS011;10488;50.846;4.078;2023-04-08T06:54:51;38.33;;;20.70;;
20657;SDS011;10488;50.846;4.078;2023-04-08T06:57:17;29.85;;;16.77;;
20657;SDS011;10488;50.846;4.078;2023-04-08T06:59:42;34.45;;;17.90;;
20657;SDS011;10488;50.846;4.078;2023-04-08T07:02:08;40.00;;;17.27;;
20657;SDS011;10488;50.846;4.078;2023-04-08T07:04:34;37.65;;;18.45;;
20657;SDS011;10488;50.846;4.078;2023-04-08T07:06:59;39.45;;;18.27;;
20657;SDS011;10488;50.846;4.078;2023-04-08T07:09:25;39.25;;;19.33;;
20657;SDS011;10488;50.846;4.078;2023-04-08T07:11:50;32.65;;;17.02;;
20657;SDS011;10488;50.846;4.078;2023-04-08T07:14:16;39.13;;;17.23;;
20657;SDS011;10488;50.846;4.078;2023-04-08T07:16:44;33.97;;;16.50;;
20657;SDS011;10488;50.846;4.078;2023-04-08T07:19:09;37.85;;;18.15;;
20657;SDS011;10488;50.846;4.078;2023-04-08T07:21:35;34.50;;;17.88;;
20657;SDS011;10488;50.846;4.078;2023-04-08T07:24:01;33.22;;;18.20;;
20657;SDS011;10488;50.846;4.078;2023-04-08T07:26:27;45.22;;;18.33;;
20657;SDS011;10488;50.846;4.078;2023-04-08T07:28:52;37.70;;;17.90;;
20657;SDS011;10488;50.846;4.078;2023-04-08T07:31:18;40.70;;;19.13;;
20657;SDS011;10488;50.846;4.078;2023-04-08T07:33:44;34.88;;;17.50;;
20657;SDS011;10488;50.846;4.078;2023-04-08T07:36:11;34.33;;;17.45;;
20657;SDS011;10488;50.846;4.078;2023-04-08T07:38:37;39.38;;;17.48;;
20657;SDS011;10488;50.846;4.078;2023-04-08T07:41:03;84.15;;;19.65;;
20657;SDS011;10488;50.846;4.078;2023-04-08T07:43:32;34.35;;;18.30;;
20657;SDS011;10488;50.846;4.078;2023-04-08T07:46:05;57.75;;;23.60;;
20657;SDS011;10488;50.846;4.078;2023-04-08T07:48:31;61.92;;;28.17;;
20657;SDS011;10488;50.846;4.078;2023-04-08T07:50:57;32.40;;;16.73;;
20657;SDS011;10488;50.846;4.078;2023-04-08T07:53:27;34.65;;;18.08;;
20657;SDS011;10488;50.846;4.078;2023-04-08T07:55:52;67.57;;;26.95;;
20657;SDS011;10488;50.846;4.078;2023-04-08T07:58:18;40.97;;;23.13;;
20657;SDS011;10488;50.846;4.078;2023-04-08T08:00:43;32.38;;;16.33;;
20657;SDS011;10488;50.846;4.078;2023-04-08T08:03:09;57.53;;;30.80;;
20657;SDS011;10488;50.846;4.078;2023-04-08T08:05:35;33.00;;;21.25;;
20657;SDS011;10488;50.846;4.078;2023-04-08T08:08:01;32.70;;;18.30;;
20657;SDS011;10488;50.846;4.078;2023-04-08T08:10:27;29.30;;;17.15;;
20657;SDS011;10488;50.846;4.078;2023-04-08T08:12:54;28.85;;;16.15;;
20657;SDS011;10488;50.846;4.078;2023-04-08T08:15:20;21.25;;;13.13;;
20657;SDS011;10488;50.846;4.078;2023-04-08T08:17:45;25.17;;;12.57;;
20657;SDS011;10488;50.846;4.078;2023-04-08T08:20:11;25.80;;;13.07;;
20657;SDS011;10488;50.846;4.078;2023-04-08T08:22:37;23.08;;;13.00;;
20657;SDS011;10488;50.846;4.078;2023-04-08T08:25:04;23.92;;;13.23;;
20657;SDS011;10488;50.846;4.078;2023-04-08T08:27:30;26.10;;;13.32;;
20657;SDS011;10488;50.846;4.078;2023-04-08T08:29:56;22.98;;;13.82;;
20657;SDS011;10488;50.846;4.078;2023-04-08T08:32:22;27.42;;;14.60;;
20657;SDS011;10488;50.846;4.078;2023-04-08T08:34:48;19.02;;;12.55;;
20657;SDS011;10488;50.846;4.078;2023-04-08T08:37:13;20.98;;;12.50;;
20657;SDS011;10488;50.846;4.078;2023-04-08T08:39:39;19.67;;;12.55;;
20657;SDS011;10488;50.846;4.078;2023-04-08T08:42:05;17.05;;;12.45;;
20657;SDS011;10488;50.846;4.078;2023-04-08T08:44:30;25.83;;;14.10;;
20657;SDS011;10488;50.846;4.078;2023-04-08T08:46:56;25.83;;;13.93;;
20657;SDS011;10488;50.846;4.078;2023-04-08T08:49:22;24.55;;;14.52;;
20657;SDS011;10488;50.846;4.078;2023-04-08T08:51:50;23.88;;;13.40;;
20657;SDS011;10488;50.846;4.078;2023-04-08T08:54:23;22.83;;;13.07;;
20657;SDS011;10488;50.846;4.078;2023-04-08T08:56:50;18.55;;;12.40;;
20657;SDS011;10488;50.846;4.078;2023-04-08T08:59:15;21.65;;;12.35;;
20657;SDS011;10488;50.846;4.078;2023-04-08T09:01:41;23.00;;;13.32;;
20657;SDS011;10488;50.846;4.078;2023-04-08T09:04:11;24.50;;;12.70;;
20657;SDS011;10488;50.846;4.078;2023-04-08T09:06:39;20.33;;;12.63;;
20657;SDS011;10488;50.846;4.078;2023-04-08T09:09:05;21.08;;;13.90;;
20657;SDS011;10488;50.846;4.078;2023-04-08T09:11:34;30.63;;;18.48;;
20657;SDS011;10488;50.846;4.078;2023-04-08T09:14:01;23.90;;;13.25;;
20657;SDS011;10488;50.846;4.078;2023-04-08T09:16:27;20.15;;;12.43;;
20657;SDS011;10488;50.846;4.078;2023-04-08T09:18:57;20.25;;;13.18;;
20657;SDS011;10488;50.846;4.078;2023-04-08T09:21:33;21.08;;;14.18;;
20657;SDS011;10488;50.846;4.078;2023-04-08T09:23:59;26.90;;;14.48;;
20657;SDS011;10488;50.846;4.078;2023-04-08T09:26:25;24.00;;;13.65;;
20657;SDS011;10488;50.846;4.078;2023-04-08T09:31:23;29.33;;;18.77;;
20657;SDS011;10488;50.846;4.078;2023-04-08T09:33:52;28.70;;;16.73;;
20657;SDS011;10488;50.846;4.078;2023-04-08T09:36:22;32.67;;;21.15;;
20657;SDS011;10488;50.846;4.078;2023-04-08T09:38:48;21.70;;;15.05;;
20657;SDS011;10488;50.846;4.078;2023-04-08T09:41:15;31.02;;;13.52;;
20657;SDS011;10488;50.846;4.078;2023-04-08T09:43:50;20.48;;;12.85;;
20657;SDS011;10488;50.846;4.078;2023-04-08T09:49:15;18.73;;;11.98;;
20657;SDS011;10488;50.846;4.078;2023-04-08T09:51:44;19.45;;;11.95;;
20657;SDS011;10488;50.846;4.078;2023-04-08T09:54:22;19.35;;;12.60;;
20657;SDS011;10488;50.846;4.078;2023-04-08T09:57:08;21.65;;;12.60;;
20657;SDS011;10488;50.846;4.078;2023-04-08T09:59:37;22.35;;;12.45;;
20657;SDS011;10488;50.846;4.078;2023-04-08T10:02:11;22.10;;;12.65;;
20657;SDS011;10488;50.846;4.078;2023-04-08T10:04:43;26.45;;;16.23;;
20657;SDS011;10488;50.846;4.078;2023-04-08T10:07:12;20.20;;;13.25;;
20657;SDS011;10488;50.846;4.078;2023-04-08T10:09:39;23.88;;;13.82;;
20657;SDS011;10488;50.846;4.078;2023-04-08T10:12:07;26.05;;;13.38;;
20657;SDS011;10488;50.846;4.078;2023-04-08T10:14:33;24.38;;;13.52;;
20657;SDS011;10488;50.846;4.078;2023-04-08T10:19:53;19.83;;;13.00;;
20657;SDS011;10488;50.846;4.078;2023-04-08T10:27:41;72.55;;;46.20;;
20657;SDS011;10488;50.846;4.078;2023-04-08T10:32:54;17.25;;;11.48;;
20657;SDS011;10488;50.846;4.078;2023-04-08T10:35:30;19.33;;;11.68;;
20657;SDS011;10488;50.846;4.078;2023-04-08T10:37:59;21.20;;;11.68;;
20657;SDS011;10488;50.846;4.078;2023-04-08T10:40:25;16.92;;;11.50;;
20657;SDS011;10488;50.846;4.078;2023-04-08T10:42:54;17.40;;;11.02;;
20657;SDS011;10488;50.846;4.078;2023-04-08T10:45:21;16.45;;;10.80;;
20657;SDS011;10488;50.846;4.078;2023-04-08T10:47:46;19.13;;;11.15;;
20657;SDS011;10488;50.846;4.078;2023-04-08T10:50:12;14.15;;;10.65;;
20657;SDS011;10488;50.846;4.078;2023-04-08T10:52:51;20.02;;;12.13;;
20657;SDS011;10488;50.846;4.078;2023-04-08T10:55:22;16.92;;;11.38;;
20657;SDS011;10488;50.846;4.078;2023-04-08T10:57:49;19.83;;;10.90;;
20657;SDS011;10488;50.846;4.078;2023-04-08T11:01:01;14.07;;;9.30;;
20657;SDS011;10488;50.846;4.078;2023-04-08T11:03:10;17.02;;;10.48;;
20657;SDS011;10488;50.846;4.078;2023-04-08T11:05:36;14.32;;;10.45;;
20657;SDS011;10488;50.846;4.078;2023-04-08T11:08:03;17.80;;;11.70;;
20657;SDS011;10488;50.846;4.078;2023-04-08T11:10:29;14.05;;;10.52;;
20657;SDS011;10488;50.846;4.078;2023-04-08T11:12:56;23.67;;;16.13;;
20657;SDS011;10488;50.846;4.078;2023-04-08T11:15:25;17.88;;;10.60;;
20657;SDS011;10488;50.846;4.078;2023-04-08T11:17:54;28.15;;;17.83;;
20657;SDS011;10488;50.846;4.078;2023-04-08T11:20:20;19.35;;;12.73;;
20657;SDS011;10488;50.846;4.078;2023-04-08T11:22:46;13.75;;;9.63;;
20657;SDS011;10488;50.846;4.078;2023-04-08T11:25:12;20.60;;;12.60;;
20657;SDS011;10488;50.846;4.078;2023-04-08T11:27:38;17.08;;;12.13;;
20657;SDS011;10488;50.846;4.078;2023-04-08T11:30:05;18.92;;;10.93;;
20657;SDS011;10488;50.846;4.078;2023-04-08T11:32:32;13.48;;;10.45;;
20657;SDS011;10488;50.846;4.078;2023-04-08T11:34:59;14.90;;;10.43;;
20657;SDS011;10488;50.846;4.078;2023-04-08T11:37:26;16.33;;;10.55;;
20657;SDS011;10488;50.846;4.078;2023-04-08T11:40:00;14.60;;;10.35;;
20657;SDS011;10488;50.846;4.078;2023-04-08T11:42:30;14.15;;;10.50;;
20657;SDS011;10488;50.846;4.078;2023-04-08T11:44:56;15.23;;;10.43;;
20657;SDS011;10488;50.846;4.078;2023-04-08T11:47:32;19.45;;;13.40;;
20657;SDS011;10488;50.846;4.078;2023-04-08T11:49:58;22.30;;;14.98;;
20657;SDS011;10488;50.846;4.078;2023-04-08T11:55:11;17.05;;;11.18;;
20657;SDS011;10488;50.846;4.078;2023-04-08T11:57:46;16.95;;;11.32;;
20657;SDS011;10488;50.846;4.078;2023-04-08T12:00:12;29.65;;;19.23;;
20657;SDS011;10488;50.846;4.078;2023-04-08T12:02:38;20.63;;;12.98;;
20657;SDS011;10488;50.846;4.078;2023-04-08T12:05:04;36.47;;;21.70;;
20657;SDS011;10488;50.846;4.078;2023-04-08T12:07:30;21.02;;;13.90;;
20657;SDS011;10488;50.846;4.078;2023-04-08T12:09:56;20.05;;;12.88;;
20657;SDS011;10488;50.846;4.078;2023-04-08T12:12:22;18.63;;;11.98;;
20657;SDS011;10488;50.846;4.078;2023-04-08T12:14:48;22.80;;;13.80;;
20657;SDS011;10488;50.846;4.078;2023-04-08T12:17:14;20.58;;;13.30;;
20657;SDS011;10488;50.846;4.078;2023-04-08T12:19:40;20.30;;;13.30;;
20657;SDS011;10488;50.846;4.078;2023-04-08T12:22:05;19.92;;;13.50;;
20657;SDS011;10488;50.846;4.078;2023-04-08T12:24:31;18.98;;;11.80;;
20657;SDS011;10488;50.846;4.078;2023-04-08T12:26:57;17.42;;;11.20;;
20657;SDS011;10488;50.846;4.078;2023-04-08T12:29:22;15.60;;;11.90;;
20657;SDS011;10488;50.846;4.078;2023-04-08T12:31:48;16.27;;;11.75;;
20657;SDS011;10488;50.846;4.078;2023-04-08T12:34:14;13.70;;;10.48;;
20657;SDS011;10488;50.846;4.078;2023-04-08T12:36:40;18.70;;;11.93;;
20657;SDS011;10488;50.846;4.078;2023-04-08T12:39:06;17.90;;;11.50;;
20657;SDS011;10488;50.846;4.078;2023-04-08T12:41:32;16.30;;;11.38;;
20657;SDS011;10488;50.846;4.078;2023-04-08T12:43:58;15.30;;;11.43;;
20657;SDS011;10488;50.846;4.078;2023-04-08T12:46:25;13.80;;;10.73;;
20657;SDS011;10488;50.846;4.078;2023-04-08T12:48:50;12.93;;;10.88;;
20657;SDS011;10488;50.846;4.078;2023-04-08T12:51:16;17.10;;;12.23;;
20657;SDS011;10488;50.846;4.078;2023-04-08T12:53:42;17.75;;;11.57;;
20657;SDS011;10488;50.846;4.078;2023-04-08T12:56:08;20.42;;;13.20;;
20657;SDS011;10488;50.846;4.078;2023-04-08T12:58:33;17.85;;;11.27;;
20657;SDS011;10488;50.846;4.078;2023-04-08T13:00:59;12.23;;;9.55;;
20657;SDS011;10488;50.846;4.078;2023-04-08T13:03:25;43.55;;;24.30;;
20657;SDS011;10488;50.846;4.078;2023-04-08T13:05:52;26.52;;;18.00;;
20657;SDS011;10488;50.846;4.078;2023-04-08T13:08:17;13.68;;;10.02;;
20657;SDS011;10488;50.846;4.078;2023-04-08T13:10:43;11.55;;;9.25;;
20657;SDS011;10488;50.846;4.078;2023-04-08T13:13:09;17.65;;;9.70;;
20657;SDS011;10488;50.846;4.078;2023-04-08T13:15:35;11.98;;;10.63;;
20657;SDS011;10488;50.846;4.078;2023-04-08T13:18:02;16.45;;;10.43;;
20657;SDS011;10488;50.846;4.078;2023-04-08T13:20:28;12.02;;;9.88;;
20657;SDS011;10488;50.846;4.078;2023-04-08T13:22:54;13.73;;;9.63;;
20657;SDS011;10488;50.846;4.078;2023-04-08T13:25:20;11.07;;;8.25;;
20657;SDS011;10488;50.846;4.078;2023-04-08T13:27:46;10.18;;;8.38;;
20657;SDS011;10488;50.846;4.078;2023-04-08T13:30:11;11.80;;;8.82;;
20657;SDS011;10488;50.846;4.078;2023-04-08T13:32:37;13.65;;;9.77;;
20657;SDS011;10488;50.846;4.078;2023-04-08T13:35:03;13.63;;;8.63;;
20657;SDS011;10488;50.846;4.078;2023-04-08T13:37:29;14.10;;;10.18;;
20657;SDS011;10488;50.846;4.078;2023-04-08T13:39:54;11.98;;;10.25;;
20657;SDS011;10488;50.846;4.078;2023-04-08T13:42:21;14.70;;;10.27;;
20657;SDS011;10488;50.846;4.078;2023-04-08T13:44:47;11.27;;;8.75;;
20657;SDS011;10488;50.846;4.078;2023-04-08T13:47:13;16.67;;;9.32;;
20657;SDS011;10488;50.846;4.078;2023-04-08T13:49:38;44.95;;;25.67;;
20657;SDS011;10488;50.846;4.078;2023-04-08T13:52:04;14.88;;;9.45;;
20657;SDS011;10488;50.846;4.078;2023-04-08T13:54:30;10.73;;;8.68;;
20657;SDS011;10488;50.846;4.078;2023-04-08T13:56:56;22.00;;;13.73;;
20657;SDS011;10488;50.846;4.078;2023-04-08T13:59:22;8.95;;;7.53;;
20657;SDS011;10488;50.846;4.078;2023-04-08T14:01:47;14.63;;;7.78;;
20657;SDS011;10488;50.846;4.078;2023-04-08T14:04:17;12.82;;;8.90;;
20657;SDS011;10488;50.846;4.078;2023-04-08T14:06:44;12.98;;;8.20;;
20657;SDS011;10488;50.846;4.078;2023-04-08T14:09:10;11.52;;;9.02;;
20657;SDS011;10488;50.846;4.078;2023-04-08T14:11:35;16.25;;;9.98;;
20657;SDS011;10488;50.846;4.078;2023-04-08T14:14:01;10.57;;;8.30;;
20657;SDS011;10488;50.846;4.078;2023-04-08T14:16:26;15.20;;;10.20;;
20657;SDS011;10488;50.846;4.078;2023-04-08T14:18:53;15.88;;;9.27;;
20657;SDS011;10488;50.846;4.078;2023-04-08T14:21:19;14.77;;;9.95;;
20657;SDS011;10488;50.846;4.078;2023-04-08T14:23:44;13.32;;;9.52;;
20657;SDS011;10488;50.846;4.078;2023-04-08T14:26:10;11.50;;;8.73;;
20657;SDS011;10488;50.846;4.078;2023-04-08T14:28:36;16.13;;;10.75;;
20657;SDS011;10488;50.846;4.078;2023-04-08T14:31:02;21.13;;;11.88;;
20657;SDS011;10488;50.846;4.078;2023-04-08T14:33:28;25.67;;;14.95;;
20657;SDS011;10488;50.846;4.078;2023-04-08T14:35:55;20.25;;;14.15;;
20657;SDS011;10488;50.846;4.078;2023-04-08T14:38:21;19.48;;;12.95;;
20657;SDS011;10488;50.846;4.078;2023-04-08T14:40:47;13.93;;;10.45;;
20657;SDS011;10488;50.846;4.078;2023-04-08T14:43:12;14.50;;;10.90;;
20657;SDS011;10488;50.846;4.078;2023-04-08T14:45:38;15.25;;;11.25;;
20657;SDS011;10488;50.846;4.078;2023-04-08T14:48:03;23.10;;;15.32;;